sensor_id;sensor_type;location;lat;lon;timestamp;temperature;humidity
13928;DHT22;7036;50.834;4.718;2023-05-07T00:02:23;21.40;59.80
13928;DHT22;7036;50.834;4.718;2023-05-07T00:04:51;21.40;59.70
13928;DHT22;7036;50.834;4.718;2023-05-07T00:07:19;21.40;59.80
13928;DHT22;7036;50.834;4.718;2023-05-07T00:09:46;21.40;59.70
13928;DHT22;7036;50.834;4.718;2023-05-07T00:12:14;21.40;59.80
13928;DHT22;7036;50.834;4.718;2023-05-07T00:14:42;21.40;59.90
13928;DHT22;7036;50.834;4.718;2023-05-07T00:17:10;21.30;59.70
13928;DHT22;7036;50.834;4.718;2023-05-07T00:19:36;21.40;59.80
13928;DHT22;7036;50.834;4.718;2023-05-07T00:22:04;21.40;59.80
13928;DHT22;7036;50.834;4.718;2023-05-07T00:24:32;21.40;59.90
13928;DHT22;7036;50.834;4.718;2023-05-07T00:27:00;21.30;59.90
13928;DHT22;7036;50.834;4.718;2023-05-07T00:29:28;21.40;59.90
13928;DHT22;7036;50.834;4.718;2023-05-07T00:31:56;21.40;60.60
13928;DHT22;7036;50.834;4.718;2023-05-07T00:34:23;21.30;59.70
13928;DHT22;7036;50.834;4.718;2023-05-07T00:36:50;21.40;59.70
13928;DHT22;7036;50.834;4.718;2023-05-07T00:39:18;21.30;59.80
13928;DHT22;7036;50.834;4.718;2023-05-07T00:41:46;21.30;59.90
13928;DHT22;7036;50.834;4.718;2023-05-07T00:44:16;21.30;59.80
13928;DHT22;7036;50.834;4.718;2023-05-07T00:46:42;21.30;59.70
13928;DHT22;7036;50.834;4.718;2023-05-07T00:49:10;21.30;59.90
13928;DHT22;7036;50.834;4.718;2023-05-07T00:51:37;21.30;59.80
13928;DHT22;7036;50.834;4.718;2023-05-07T00:54:05;21.30;60.00
13928;DHT22;7036;50.834;4.718;2023-05-07T00:56:33;21.30;59.80
13928;DHT22;7036;50.834;4.718;2023-05-07T00:59:01;21.30;59.90
13928;DHT22;7036;50.834;4.718;2023-05-07T01:01:28;21.30;59.80
13928;DHT22;7036;50.834;4.718;2023-05-07T01:03:57;21.30;59.90
13928;DHT22;7036;50.834;4.718;2023-05-07T01:06:24;21.30;59.80
13928;DHT22;7036;50.834;4.718;2023-05-07T01:08:51;21.30;59.80
13928;DHT22;7036;50.834;4.718;2023-05-07T01:11:18;21.30;59.80
13928;DHT22;7036;50.834;4.718;2023-05-07T01:13:46;21.30;59.90
13928;DHT22;7036;50.834;4.718;2023-05-07T01:16:13;21.30;59.70
13928;DHT22;7036;50.834;4.718;2023-05-07T01:18:41;21.30;59.90
13928;DHT22;7036;50.834;4.718;2023-05-07T01:21:08;21.30;59.80
13928;DHT22;7036;50.834;4.718;2023-05-07T01:23:36;21.30;59.90
13928;DHT22;7036;50.834;4.718;2023-05-07T01:26:04;21.30;59.80
13928;DHT22;7036;50.834;4.718;2023-05-07T01:28:31;21.30;60.00
13928;DHT22;7036;50.834;4.718;2023-05-07T01:31:02;21.20;59.80
13928;DHT22;7036;50.834;4.718;2023-05-07T01:33:26;21.30;59.80
13928;DHT22;7036;50.834;4.718;2023-05-07T01:35:54;21.30;60.10
13928;DHT22;7036;50.834;4.718;2023-05-07T01:38:21;21.20;59.80
13928;DHT22;7036;50.834;4.718;2023-05-07T01:40:49;21.30;60.10
13928;DHT22;7036;50.834;4.718;2023-05-07T01:43:16;21.30;59.80
13928;DHT22;7036;50.834;4.718;2023-05-07T01:45:44;21.30;60.10
13928;DHT22;7036;50.834;4.718;2023-05-07T01:48:11;21.30;59.80
13928;DHT22;7036;50.834;4.718;2023-05-07T01:50:39;21.30;60.10
13928;DHT22;7036;50.834;4.718;2023-05-07T01:53:07;21.30;59.80
13928;DHT22;7036;50.834;4.718;2023-05-07T01:55:34;21.30;59.80
13928;DHT22;7036;50.834;4.718;2023-05-07T01:58:02;21.30;60.20
13928;DHT22;7036;50.834;4.718;2023-05-07T02:00:29;21.30;59.90
13928;DHT22;7036;50.834;4.718;2023-05-07T02:02:56;21.30;59.90
13928;DHT22;7036;50.834;4.718;2023-05-07T02:05:24;21.20;60.50
13928;DHT22;7036;50.834;4.718;2023-05-07T02:07:51;21.20;59.80
13928;DHT22;7036;50.834;4.718;2023-05-07T02:10:18;21.20;59.80
13928;DHT22;7036;50.834;4.718;2023-05-07T02:12:46;21.20;60.10
13928;DHT22;7036;50.834;4.718;2023-05-07T02:15:14;21.20;59.80
13928;DHT22;7036;50.834;4.718;2023-05-07T02:20:26;21.20;59.80
13928;DHT22;7036;50.834;4.718;2023-05-07T02:22:53;21.20;59.80
13928;DHT22;7036;50.834;4.718;2023-05-07T02:25:21;21.20;59.80
13928;DHT22;7036;50.834;4.718;2023-05-07T02:27:48;21.20;59.80
13928;DHT22;7036;50.834;4.718;2023-05-07T02:30:16;21.20;60.10
13928;DHT22;7036;50.834;4.718;2023-05-07T02:32:44;21.20;60.10
13928;DHT22;7036;50.834;4.718;2023-05-07T02:35:11;21.20;59.90
13928;DHT22;7036;50.834;4.718;2023-05-07T02:37:39;21.20;59.40
13928;DHT22;7036;50.834;4.718;2023-05-07T02:40:07;21.20;60.00
13928;DHT22;7036;50.834;4.718;2023-05-07T02:42:35;21.20;60.00
13928;DHT22;7036;50.834;4.718;2023-05-07T02:45:01;21.20;59.90
13928;DHT22;7036;50.834;4.718;2023-05-07T02:47:28;21.20;59.90
13928;DHT22;7036;50.834;4.718;2023-05-07T02:49:56;21.20;60.00
13928;DHT22;7036;50.834;4.718;2023-05-07T02:52:24;21.20;59.90
13928;DHT22;7036;50.834;4.718;2023-05-07T02:54:52;21.20;60.10
13928;DHT22;7036;50.834;4.718;2023-05-07T02:57:20;21.20;60.20
13928;DHT22;7036;50.834;4.718;2023-05-07T02:59:47;21.20;59.90
13928;DHT22;7036;50.834;4.718;2023-05-07T03:02:14;21.20;59.90
13928;DHT22;7036;50.834;4.718;2023-05-07T03:04:41;21.20;60.60
13928;DHT22;7036;50.834;4.718;2023-05-07T03:07:08;21.20;59.90
13928;DHT22;7036;50.834;4.718;2023-05-07T03:09:36;21.20;60.00
13928;DHT22;7036;50.834;4.718;2023-05-07T03:12:04;21.20;60.00
13928;DHT22;7036;50.834;4.718;2023-05-07T03:14:32;21.20;60.00
13928;DHT22;7036;50.834;4.718;2023-05-07T03:17:00;21.10;60.00
13928;DHT22;7036;50.834;4.718;2023-05-07T03:19:27;21.10;59.90
13928;DHT22;7036;50.834;4.718;2023-05-07T03:21:55;21.20;60.00
13928;DHT22;7036;50.834;4.718;2023-05-07T03:24:22;21.10;59.90
13928;DHT22;7036;50.834;4.718;2023-05-07T03:26:50;21.10;60.00
13928;DHT22;7036;50.834;4.718;2023-05-07T03:29:18;21.20;60.00
13928;DHT22;7036;50.834;4.718;2023-05-07T03:31:46;21.10;60.00
13928;DHT22;7036;50.834;4.718;2023-05-07T03:34:13;21.10;59.90
13928;DHT22;7036;50.834;4.718;2023-05-07T03:36:41;21.10;59.90
13928;DHT22;7036;50.834;4.718;2023-05-07T03:39:09;21.10;60.00
13928;DHT22;7036;50.834;4.718;2023-05-07T03:41:37;21.10;60.00
13928;DHT22;7036;50.834;4.718;2023-05-07T03:44:05;21.10;60.00
13928;DHT22;7036;50.834;4.718;2023-05-07T03:46:33;21.10;60.00
13928;DHT22;7036;50.834;4.718;2023-05-07T03:49:01;21.10;60.00
13928;DHT22;7036;50.834;4.718;2023-05-07T03:51:29;21.10;60.00
13928;DHT22;7036;50.834;4.718;2023-05-07T03:53:56;21.10;59.90
13928;DHT22;7036;50.834;4.718;2023-05-07T03:56:23;21.10;59.90
13928;DHT22;7036;50.834;4.718;2023-05-07T03:58:51;21.10;60.00
13928;DHT22;7036;50.834;4.718;2023-05-07T04:01:19;21.10;60.00
13928;DHT22;7036;50.834;4.718;2023-05-07T04:03:47;21.10;60.00
13928;DHT22;7036;50.834;4.718;2023-05-07T04:06:18;21.10;60.00
13928;DHT22;7036;50.834;4.718;2023-05-07T04:08:45;21.10;59.90
13928;DHT22;7036;50.834;4.718;2023-05-07T04:11:13;21.10;60.10
13928;DHT22;7036;50.834;4.718;2023-05-07T04:13:41;21.10;60.00
13928;DHT22;7036;50.834;4.718;2023-05-07T04:16:08;21.10;60.10
13928;DHT22;7036;50.834;4.718;2023-05-07T04:18:36;21.10;60.00
13928;DHT22;7036;50.834;4.718;2023-05-07T04:21:05;21.10;59.40
13928;DHT22;7036;50.834;4.718;2023-05-07T04:23:32;21.10;60.00
13928;DHT22;7036;50.834;4.718;2023-05-07T04:26:00;21.10;60.10
13928;DHT22;7036;50.834;4.718;2023-05-07T04:28:28;21.00;59.90
13928;DHT22;7036;50.834;4.718;2023-05-07T04:30:56;21.10;60.10
13928;DHT22;7036;50.834;4.718;2023-05-07T04:33:24;21.10;60.10
13928;DHT22;7036;50.834;4.718;2023-05-07T04:35:51;21.00;59.90
13928;DHT22;7036;50.834;4.718;2023-05-07T04:38:18;21.10;60.00
13928;DHT22;7036;50.834;4.718;2023-05-07T04:40:45;21.10;59.40
13928;DHT22;7036;50.834;4.718;2023-05-07T04:43:12;21.10;60.00
13928;DHT22;7036;50.834;4.718;2023-05-07T04:45:40;21.10;60.10
13928;DHT22;7036;50.834;4.718;2023-05-07T04:48:09;21.10;60.00
13928;DHT22;7036;50.834;4.718;2023-05-07T04:50:36;21.00;59.90
13928;DHT22;7036;50.834;4.718;2023-05-07T04:53:04;21.10;60.10
13928;DHT22;7036;50.834;4.718;2023-05-07T04:55:33;21.10;60.10
13928;DHT22;7036;50.834;4.718;2023-05-07T04:57:59;21.10;60.00
13928;DHT22;7036;50.834;4.718;2023-05-07T05:00:31;21.10;60.10
13928;DHT22;7036;50.834;4.718;2023-05-07T05:02:56;21.10;60.00
13928;DHT22;7036;50.834;4.718;2023-05-07T05:05:24;21.10;60.20
13928;DHT22;7036;50.834;4.718;2023-05-07T05:07:51;21.10;60.00
13928;DHT22;7036;50.834;4.718;2023-05-07T05:10:18;21.10;60.00
13928;DHT22;7036;50.834;4.718;2023-05-07T05:12:46;21.10;60.10
13928;DHT22;7036;50.834;4.718;2023-05-07T05:15:14;21.10;60.10
13928;DHT22;7036;50.834;4.718;2023-05-07T05:17:42;21.10;60.10
13928;DHT22;7036;50.834;4.718;2023-05-07T05:20:10;21.10;60.00
13928;DHT22;7036;50.834;4.718;2023-05-07T05:22:38;21.10;60.00
13928;DHT22;7036;50.834;4.718;2023-05-07T05:25:06;21.10;60.10
13928;DHT22;7036;50.834;4.718;2023-05-07T05:27:34;21.10;60.00
13928;DHT22;7036;50.834;4.718;2023-05-07T05:30:01;21.10;60.80
13928;DHT22;7036;50.834;4.718;2023-05-07T05:32:29;21.10;60.10
13928;DHT22;7036;50.834;4.718;2023-05-07T05:34:57;21.10;60.10
13928;DHT22;7036;50.834;4.718;2023-05-07T05:37:25;21.10;60.20
13928;DHT22;7036;50.834;4.718;2023-05-07T05:39:53;21.10;60.20
13928;DHT22;7036;50.834;4.718;2023-05-07T05:42:21;21.10;60.20
13928;DHT22;7036;50.834;4.718;2023-05-07T05:44:49;21.10;60.20
13928;DHT22;7036;50.834;4.718;2023-05-07T05:47:17;21.10;60.10
13928;DHT22;7036;50.834;4.718;2023-05-07T05:49:44;21.10;60.00
13928;DHT22;7036;50.834;4.718;2023-05-07T05:52:12;21.10;60.20
13928;DHT22;7036;50.834;4.718;2023-05-07T05:54:39;21.00;60.00
13928;DHT22;7036;50.834;4.718;2023-05-07T05:57:06;21.10;60.10
13928;DHT22;7036;50.834;4.718;2023-05-07T05:59:34;21.10;60.10
13928;DHT22;7036;50.834;4.718;2023-05-07T06:02:02;21.10;60.20
13928;DHT22;7036;50.834;4.718;2023-05-07T06:04:29;21.10;60.10
13928;DHT22;7036;50.834;4.718;2023-05-07T06:06:57;21.10;60.10
13928;DHT22;7036;50.834;4.718;2023-05-07T06:09:25;21.10;60.10
13928;DHT22;7036;50.834;4.718;2023-05-07T06:11:53;21.10;60.00
13928;DHT22;7036;50.834;4.718;2023-05-07T06:14:20;21.10;59.90
13928;DHT22;7036;50.834;4.718;2023-05-07T06:16:47;21.10;60.00
13928;DHT22;7036;50.834;4.718;2023-05-07T06:19:15;21.10;60.10
13928;DHT22;7036;50.834;4.718;2023-05-07T06:21:43;21.10;60.10
13928;DHT22;7036;50.834;4.718;2023-05-07T06:24:11;21.10;60.20
13928;DHT22;7036;50.834;4.718;2023-05-07T06:26:39;21.10;60.10
13928;DHT22;7036;50.834;4.718;2023-05-07T06:29:06;21.10;60.10
13928;DHT22;7036;50.834;4.718;2023-05-07T06:31:33;21.10;60.10
13928;DHT22;7036;50.834;4.718;2023-05-07T06:34:01;21.10;60.30
13928;DHT22;7036;50.834;4.718;2023-05-07T06:36:28;21.10;60.10
13928;DHT22;7036;50.834;4.718;2023-05-07T06:38:56;21.10;60.20
13928;DHT22;7036;50.834;4.718;2023-05-07T06:41:23;21.10;60.10
13928;DHT22;7036;50.834;4.718;2023-05-07T06:43:51;21.10;60.40
13928;DHT22;7036;50.834;4.718;2023-05-07T06:46:19;21.10;60.30
13928;DHT22;7036;50.834;4.718;2023-05-07T06:48:47;21.10;60.50
13928;DHT22;7036;50.834;4.718;2023-05-07T06:51:15;21.10;60.50
13928;DHT22;7036;50.834;4.718;2023-05-07T06:53:42;21.10;60.40
13928;DHT22;7036;50.834;4.718;2023-05-07T06:56:10;21.10;60.40
13928;DHT22;7036;50.834;4.718;2023-05-07T06:58:37;21.10;60.30
13928;DHT22;7036;50.834;4.718;2023-05-07T07:01:05;21.20;60.40
13928;DHT22;7036;50.834;4.718;2023-05-07T07:03:32;21.20;60.30
13928;DHT22;7036;50.834;4.718;2023-05-07T07:06:00;21.20;60.30
13928;DHT22;7036;50.834;4.718;2023-05-07T07:08:28;21.20;60.50
13928;DHT22;7036;50.834;4.718;2023-05-07T07:10:55;21.20;60.30
13928;DHT22;7036;50.834;4.718;2023-05-07T07:13:23;21.20;60.60
13928;DHT22;7036;50.834;4.718;2023-05-07T07:15:51;21.10;60.40
13928;DHT22;7036;50.834;4.718;2023-05-07T07:18:18;21.20;60.70
13928;DHT22;7036;50.834;4.718;2023-05-07T07:20:45;21.20;60.60
13928;DHT22;7036;50.834;4.718;2023-05-07T07:23:13;21.20;60.70
13928;DHT22;7036;50.834;4.718;2023-05-07T07:25:42;21.20;60.50
13928;DHT22;7036;50.834;4.718;2023-05-07T07:28:09;21.20;60.50
13928;DHT22;7036;50.834;4.718;2023-05-07T07:30:37;21.20;60.50
13928;DHT22;7036;50.834;4.718;2023-05-07T07:33:03;21.20;60.60
13928;DHT22;7036;50.834;4.718;2023-05-07T07:35:33;21.20;60.70
13928;DHT22;7036;50.834;4.718;2023-05-07T07:37:58;21.20;60.70
13928;DHT22;7036;50.834;4.718;2023-05-07T07:40:25;21.20;60.70
13928;DHT22;7036;50.834;4.718;2023-05-07T07:42:53;21.20;60.90
13928;DHT22;7036;50.834;4.718;2023-05-07T07:45:20;21.20;60.90
13928;DHT22;7036;50.834;4.718;2023-05-07T07:47:47;21.20;60.70
13928;DHT22;7036;50.834;4.718;2023-05-07T07:50:15;21.20;61.00
13928;DHT22;7036;50.834;4.718;2023-05-07T07:52:43;21.20;60.90
13928;DHT22;7036;50.834;4.718;2023-05-07T07:55:11;21.30;61.00
13928;DHT22;7036;50.834;4.718;2023-05-07T07:57:39;21.30;61.00
13928;DHT22;7036;50.834;4.718;2023-05-07T08:00:06;21.30;60.80
13928;DHT22;7036;50.834;4.718;2023-05-07T08:02:33;21.30;60.90
13928;DHT22;7036;50.834;4.718;2023-05-07T08:05:02;21.30;61.10
13928;DHT22;7036;50.834;4.718;2023-05-07T08:07:29;21.30;60.90
13928;DHT22;7036;50.834;4.718;2023-05-07T08:09:57;21.30;61.10
13928;DHT22;7036;50.834;4.718;2023-05-07T08:12:24;21.30;61.00
13928;DHT22;7036;50.834;4.718;2023-05-07T08:14:53;21.30;60.60
13928;DHT22;7036;50.834;4.718;2023-05-07T08:17:20;21.30;61.20
13928;DHT22;7036;50.834;4.718;2023-05-07T08:19:47;21.30;61.10
13928;DHT22;7036;50.834;4.718;2023-05-07T08:22:15;21.30;61.50
13928;DHT22;7036;50.834;4.718;2023-05-07T08:24:42;21.30;61.30
13928;DHT22;7036;50.834;4.718;2023-05-07T08:27:10;21.30;61.40
13928;DHT22;7036;50.834;4.718;2023-05-07T08:29:38;21.30;61.40
13928;DHT22;7036;50.834;4.718;2023-05-07T08:32:05;21.30;61.20
13928;DHT22;7036;50.834;4.718;2023-05-07T08:34:32;21.30;61.30
13928;DHT22;7036;50.834;4.718;2023-05-07T08:36:59;21.40;61.40
13928;DHT22;7036;50.834;4.718;2023-05-07T08:39:27;21.40;61.40
13928;DHT22;7036;50.834;4.718;2023-05-07T08:41:55;21.40;61.50
13928;DHT22;7036;50.834;4.718;2023-05-07T08:44:23;21.40;61.40
13928;DHT22;7036;50.834;4.718;2023-05-07T08:46:51;21.40;61.70
13928;DHT22;7036;50.834;4.718;2023-05-07T08:49:20;21.40;61.60
13928;DHT22;7036;50.834;4.718;2023-05-07T08:51:47;21.40;61.50
13928;DHT22;7036;50.834;4.718;2023-05-07T08:54:18;21.30;61.60
13928;DHT22;7036;50.834;4.718;2023-05-07T08:56:45;21.30;61.50
13928;DHT22;7036;50.834;4.718;2023-05-07T08:59:13;21.40;61.60
13928;DHT22;7036;50.834;4.718;2023-05-07T09:01:40;21.40;61.50
13928;DHT22;7036;50.834;4.718;2023-05-07T09:04:07;21.40;61.50
13928;DHT22;7036;50.834;4.718;2023-05-07T09:06:35;21.30;61.80
13928;DHT22;7036;50.834;4.718;2023-05-07T09:09:03;21.40;61.70
13928;DHT22;7036;50.834;4.718;2023-05-07T09:11:31;21.40;61.60
13928;DHT22;7036;50.834;4.718;2023-05-07T09:13:59;21.40;61.80
13928;DHT22;7036;50.834;4.718;2023-05-07T09:16:26;21.40;61.60
13928;DHT22;7036;50.834;4.718;2023-05-07T09:18:54;21.40;62.40
13928;DHT22;7036;50.834;4.718;2023-05-07T09:21:21;21.40;61.50
13928;DHT22;7036;50.834;4.718;2023-05-07T09:23:52;21.40;61.70
13928;DHT22;7036;50.834;4.718;2023-05-07T09:26:16;21.40;61.50
13928;DHT22;7036;50.834;4.718;2023-05-07T09:28:43;21.40;61.70
13928;DHT22;7036;50.834;4.718;2023-05-07T09:31:10;21.40;61.70
13928;DHT22;7036;50.834;4.718;2023-05-07T09:33:38;21.40;62.00
13928;DHT22;7036;50.834;4.718;2023-05-07T09:36:05;21.40;61.80
13928;DHT22;7036;50.834;4.718;2023-05-07T09:38:32;21.40;61.70
13928;DHT22;7036;50.834;4.718;2023-05-07T09:41:09;21.40;62.00
13928;DHT22;7036;50.834;4.718;2023-05-07T09:43:36;21.40;62.00
13928;DHT22;7036;50.834;4.718;2023-05-07T09:46:07;21.50;62.00
13928;DHT22;7036;50.834;4.718;2023-05-07T09:48:30;21.40;61.80
13928;DHT22;7036;50.834;4.718;2023-05-07T09:50:58;21.50;62.00
13928;DHT22;7036;50.834;4.718;2023-05-07T09:53:26;21.40;62.00
13928;DHT22;7036;50.834;4.718;2023-05-07T09:55:54;21.40;62.00
13928;DHT22;7036;50.834;4.718;2023-05-07T09:58:22;21.40;62.00
13928;DHT22;7036;50.834;4.718;2023-05-07T10:00:51;21.40;61.90
13928;DHT22;7036;50.834;4.718;2023-05-07T10:03:18;21.40;61.90
13928;DHT22;7036;50.834;4.718;2023-05-07T10:05:46;21.50;62.00
13928;DHT22;7036;50.834;4.718;2023-05-07T10:08:13;21.40;62.00
13928;DHT22;7036;50.834;4.718;2023-05-07T10:10:42;21.40;61.80
13928;DHT22;7036;50.834;4.718;2023-05-07T10:13:08;21.50;61.90
13928;DHT22;7036;50.834;4.718;2023-05-07T10:15:36;21.50;61.90
13928;DHT22;7036;50.834;4.718;2023-05-07T10:18:03;21.40;62.00
13928;DHT22;7036;50.834;4.718;2023-05-07T10:20:32;21.50;61.90
13928;DHT22;7036;50.834;4.718;2023-05-07T10:23:00;21.50;62.00
13928;DHT22;7036;50.834;4.718;2023-05-07T10:25:30;21.40;61.80
13928;DHT22;7036;50.834;4.718;2023-05-07T10:27:57;21.50;61.80
13928;DHT22;7036;50.834;4.718;2023-05-07T10:33:07;21.50;62.20
13928;DHT22;7036;50.834;4.718;2023-05-07T10:35:40;21.50;61.90
13928;DHT22;7036;50.834;4.718;2023-05-07T10:38:07;21.50;62.00
13928;DHT22;7036;50.834;4.718;2023-05-07T10:40:33;21.50;62.70
13928;DHT22;7036;50.834;4.718;2023-05-07T10:43:01;21.50;62.10
13928;DHT22;7036;50.834;4.718;2023-05-07T10:45:28;21.50;62.20
13928;DHT22;7036;50.834;4.718;2023-05-07T10:48:12;21.50;62.50
13928;DHT22;7036;50.834;4.718;2023-05-07T10:50:42;21.50;62.30
13928;DHT22;7036;50.834;4.718;2023-05-07T10:55:49;21.50;62.60
13928;DHT22;7036;50.834;4.718;2023-05-07T10:58:24;21.50;62.60
13928;DHT22;7036;50.834;4.718;2023-05-07T11:00:57;21.60;62.80
13928;DHT22;7036;50.834;4.718;2023-05-07T11:03:25;21.60;62.70
13928;DHT22;7036;50.834;4.718;2023-05-07T11:06:13;21.60;63.30
13928;DHT22;7036;50.834;4.718;2023-05-07T11:08:57;21.60;63.00
13928;DHT22;7036;50.834;4.718;2023-05-07T11:11:49;21.60;62.90
13928;DHT22;7036;50.834;4.718;2023-05-07T11:14:14;21.60;62.80
13928;DHT22;7036;50.834;4.718;2023-05-07T11:16:41;21.60;62.70
13928;DHT22;7036;50.834;4.718;2023-05-07T11:19:08;21.60;62.60
13928;DHT22;7036;50.834;4.718;2023-05-07T11:21:36;21.60;62.70
13928;DHT22;7036;50.834;4.718;2023-05-07T11:24:04;21.60;63.10
13928;DHT22;7036;50.834;4.718;2023-05-07T11:26:48;21.70;63.00
13928;DHT22;7036;50.834;4.718;2023-05-07T11:29:20;21.60;62.90
13928;DHT22;7036;50.834;4.718;2023-05-07T11:31:53;21.70;63.20
13928;DHT22;7036;50.834;4.718;2023-05-07T11:34:25;21.70;63.50
13928;DHT22;7036;50.834;4.718;2023-05-07T11:36:52;21.70;63.30
13928;DHT22;7036;50.834;4.718;2023-05-07T11:39:29;21.70;63.30
13928;DHT22;7036;50.834;4.718;2023-05-07T11:41:54;21.70;63.40
13928;DHT22;7036;50.834;4.718;2023-05-07T11:44:22;21.70;63.80
13928;DHT22;7036;50.834;4.718;2023-05-07T11:46:50;21.70;64.20
13928;DHT22;7036;50.834;4.718;2023-05-07T11:49:18;21.70;64.00
13928;DHT22;7036;50.834;4.718;2023-05-07T11:51:45;21.70;64.00
13928;DHT22;7036;50.834;4.718;2023-05-07T11:54:15;21.70;64.10
13928;DHT22;7036;50.834;4.718;2023-05-07T11:56:40;21.70;64.00
13928;DHT22;7036;50.834;4.718;2023-05-07T11:59:08;21.70;64.00
13928;DHT22;7036;50.834;4.718;2023-05-07T12:01:36;21.70;64.00
13928;DHT22;7036;50.834;4.718;2023-05-07T12:04:04;21.70;64.20
13928;DHT22;7036;50.834;4.718;2023-05-07T12:06:35;21.70;64.00
13928;DHT22;7036;50.834;4.718;2023-05-07T12:08:58;21.70;64.00
13928;DHT22;7036;50.834;4.718;2023-05-07T12:11:25;21.80;63.80
13928;DHT22;7036;50.834;4.718;2023-05-07T12:13:56;21.80;64.10
13928;DHT22;7036;50.834;4.718;2023-05-07T12:16:23;21.70;63.90
13928;DHT22;7036;50.834;4.718;2023-05-07T12:18:51;21.70;63.80
13928;DHT22;7036;50.834;4.718;2023-05-07T12:21:18;21.70;63.70
13928;DHT22;7036;50.834;4.718;2023-05-07T12:23:46;21.80;64.50
13928;DHT22;7036;50.834;4.718;2023-05-07T12:26:14;21.80;63.70
13928;DHT22;7036;50.834;4.718;2023-05-07T12:28:41;21.70;63.50
13928;DHT22;7036;50.834;4.718;2023-05-07T12:31:09;21.80;64.80
13928;DHT22;7036;50.834;4.718;2023-05-07T12:33:36;21.70;64.70
13928;DHT22;7036;50.834;4.718;2023-05-07T12:36:05;21.80;64.30
13928;DHT22;7036;50.834;4.718;2023-05-07T12:38:35;21.80;65.00
13928;DHT22;7036;50.834;4.718;2023-05-07T12:40:59;21.70;64.90
13928;DHT22;7036;50.834;4.718;2023-05-07T12:43:27;21.80;65.40
13928;DHT22;7036;50.834;4.718;2023-05-07T12:45:56;21.70;65.20
13928;DHT22;7036;50.834;4.718;2023-05-07T12:48:22;21.80;64.70
13928;DHT22;7036;50.834;4.718;2023-05-07T12:50:52;21.80;64.90
13928;DHT22;7036;50.834;4.718;2023-05-07T12:53:19;21.80;65.00
13928;DHT22;7036;50.834;4.718;2023-05-07T12:55:46;21.80;65.40
13928;DHT22;7036;50.834;4.718;2023-05-07T12:58:29;21.80;65.10
13928;DHT22;7036;50.834;4.718;2023-05-07T13:00:55;21.80;65.00
13928;DHT22;7036;50.834;4.718;2023-05-07T13:03:28;21.80;65.30
13928;DHT22;7036;50.834;4.718;2023-05-07T13:05:55;21.80;65.60
13928;DHT22;7036;50.834;4.718;2023-05-07T13:08:35;21.70;65.40
13928;DHT22;7036;50.834;4.718;2023-05-07T13:11:01;21.80;65.60
13928;DHT22;7036;50.834;4.718;2023-05-07T13:13:28;21.80;65.10
13928;DHT22;7036;50.834;4.718;2023-05-07T13:15:55;21.70;65.30
13928;DHT22;7036;50.834;4.718;2023-05-07T13:18:24;21.80;65.40
13928;DHT22;7036;50.834;4.718;2023-05-07T13:20:50;21.70;65.20
13928;DHT22;7036;50.834;4.718;2023-05-07T13:23:17;21.80;65.10
13928;DHT22;7036;50.834;4.718;2023-05-07T13:25:44;21.80;65.20
13928;DHT22;7036;50.834;4.718;2023-05-07T13:28:12;21.80;65.60
13928;DHT22;7036;50.834;4.718;2023-05-07T13:30:40;21.80;64.90
13928;DHT22;7036;50.834;4.718;2023-05-07T13:33:07;21.80;65.00
13928;DHT22;7036;50.834;4.718;2023-05-07T13:35:34;21.80;64.90
13928;DHT22;7036;50.834;4.718;2023-05-07T13:38:01;21.80;64.80
13928;DHT22;7036;50.834;4.718;2023-05-07T13:40:29;21.80;64.70
13928;DHT22;7036;50.834;4.718;2023-05-07T13:42:57;21.80;64.60
13928;DHT22;7036;50.834;4.718;2023-05-07T13:45:24;21.80;64.80
13928;DHT22;7036;50.834;4.718;2023-05-07T13:47:51;21.80;64.70
13928;DHT22;7036;50.834;4.718;2023-05-07T13:50:19;21.80;64.60
13928;DHT22;7036;50.834;4.718;2023-05-07T13:52:46;21.80;64.70
13928;DHT22;7036;50.834;4.718;2023-05-07T13:55:13;21.80;64.50
13928;DHT22;7036;50.834;4.718;2023-05-07T13:57:41;21.80;64.60
13928;DHT22;7036;50.834;4.718;2023-05-07T14:00:09;21.80;64.60
13928;DHT22;7036;50.834;4.718;2023-05-07T14:02:37;21.80;64.70
13928;DHT22;7036;50.834;4.718;2023-05-07T14:05:04;21.80;64.60
13928;DHT22;7036;50.834;4.718;2023-05-07T14:07:31;21.80;64.60
13928;DHT22;7036;50.834;4.718;2023-05-07T14:09:58;21.80;64.60
13928;DHT22;7036;50.834;4.718;2023-05-07T14:12:26;21.90;64.70
13928;DHT22;7036;50.834;4.718;2023-05-07T14:14:54;21.80;65.00
13928;DHT22;7036;50.834;4.718;2023-05-07T14:17:21;21.80;64.80
13928;DHT22;7036;50.834;4.718;2023-05-07T14:19:49;21.80;65.40
13928;DHT22;7036;50.834;4.718;2023-05-07T14:22:17;21.80;64.80
13928;DHT22;7036;50.834;4.718;2023-05-07T14:24:44;21.80;64.70
13928;DHT22;7036;50.834;4.718;2023-05-07T14:27:14;21.80;64.20
13928;DHT22;7036;50.834;4.718;2023-05-07T14:29:40;21.80;64.70
13928;DHT22;7036;50.834;4.718;2023-05-07T14:32:08;21.80;64.70
13928;DHT22;7036;50.834;4.718;2023-05-07T14:34:35;21.80;64.70
13928;DHT22;7036;50.834;4.718;2023-05-07T14:37:03;21.80;64.70
13928;DHT22;7036;50.834;4.718;2023-05-07T14:39:31;21.80;64.80
13928;DHT22;7036;50.834;4.718;2023-05-07T14:41:59;21.80;64.70
13928;DHT22;7036;50.834;4.718;2023-05-07T14:44:27;21.90;64.70
13928;DHT22;7036;50.834;4.718;2023-05-07T14:46:55;21.80;64.60
13928;DHT22;7036;50.834;4.718;2023-05-07T14:49:22;21.80;64.50
13928;DHT22;7036;50.834;4.718;2023-05-07T14:51:50;21.80;64.60
13928;DHT22;7036;50.834;4.718;2023-05-07T14:54:17;21.80;64.40
13928;DHT22;7036;50.834;4.718;2023-05-07T14:56:44;21.80;64.40
13928;DHT22;7036;50.834;4.718;2023-05-07T14:59:11;21.90;64.20
13928;DHT22;7036;50.834;4.718;2023-05-07T15:01:38;21.90;64.30
13928;DHT22;7036;50.834;4.718;2023-05-07T15:04:06;21.90;64.40
13928;DHT22;7036;50.834;4.718;2023-05-07T15:06:34;21.90;64.40
13928;DHT22;7036;50.834;4.718;2023-05-07T15:09:03;21.90;64.40
13928;DHT22;7036;50.834;4.718;2023-05-07T15:11:30;21.80;64.20
13928;DHT22;7036;50.834;4.718;2023-05-07T15:13:58;21.90;64.40
13928;DHT22;7036;50.834;4.718;2023-05-07T15:16:26;21.80;64.80
13928;DHT22;7036;50.834;4.718;2023-05-07T15:18:54;21.80;64.50
13928;DHT22;7036;50.834;4.718;2023-05-07T15:21:21;21.80;64.30
13928;DHT22;7036;50.834;4.718;2023-05-07T15:23:48;21.90;65.00
13928;DHT22;7036;50.834;4.718;2023-05-07T15:26:16;21.90;64.30
13928;DHT22;7036;50.834;4.718;2023-05-07T15:28:43;21.80;64.10
13928;DHT22;7036;50.834;4.718;2023-05-07T15:31:11;21.90;64.20
13928;DHT22;7036;50.834;4.718;2023-05-07T15:33:39;21.90;64.20
13928;DHT22;7036;50.834;4.718;2023-05-07T15:36:06;21.80;64.10
13928;DHT22;7036;50.834;4.718;2023-05-07T15:38:34;21.90;64.30
13928;DHT22;7036;50.834;4.718;2023-05-07T15:41:02;21.90;64.10
13928;DHT22;7036;50.834;4.718;2023-05-07T15:43:29;21.90;64.00
13928;DHT22;7036;50.834;4.718;2023-05-07T15:45:56;21.90;64.00
13928;DHT22;7036;50.834;4.718;2023-05-07T15:48:24;21.90;64.10
13928;DHT22;7036;50.834;4.718;2023-05-07T15:50:51;21.90;64.00
13928;DHT22;7036;50.834;4.718;2023-05-07T15:53:18;21.80;64.00
13928;DHT22;7036;50.834;4.718;2023-05-07T15:55:45;21.90;64.00
13928;DHT22;7036;50.834;4.718;2023-05-07T15:58:13;21.90;64.10